createdAt,value
2019-04-21T00:01:10.229Z,29.00
2019-04-21T00:04:24.755Z,26.97
2019-04-21T00:07:37.749Z,29.07
2019-04-21T00:10:48.642Z,23.67
2019-04-21T00:13:51.424Z,24.40
2019-04-21T00:16:50.905Z,22.37
2019-04-21T00:20:11.470Z,20.40
2019-04-21T00:23:22.571Z,21.47
2019-04-21T00:26:27.931Z,23.23
2019-04-21T00:32:42.002Z,23.50
2019-04-21T00:35:45.291Z,23.17
2019-04-21T00:39:17.035Z,25.10
2019-04-21T00:42:12.867Z,25.50
2019-04-21T00:45:12.025Z,26.10
2019-04-21T00:48:30.439Z,24.87
2019-04-21T00:51:40.244Z,27.13
2019-04-21T00:54:49.777Z,30.97
2019-04-21T01:00:57.029Z,27.80
2019-04-21T01:04:02.194Z,31.90
2019-04-21T01:07:13.234Z,32.53
2019-04-21T01:10:09.410Z,32.77
2019-04-21T01:13:27.573Z,31.83
2019-04-21T01:16:33.453Z,30.73
2019-04-21T01:19:33.758Z,26.70
2019-04-21T01:22:23.519Z,33.43
2019-04-21T01:25:36.888Z,26.43
2019-04-21T01:28:52.843Z,29.77
2019-04-21T01:32:10.540Z,29.37
2019-04-21T01:35:10.117Z,26.70
2019-04-21T01:38:27.322Z,29.00
2019-04-21T01:41:29.328Z,29.10
2019-04-21T01:44:40.413Z,33.03
2019-04-21T01:47:36.098Z,32.53
2019-04-21T01:50:41.190Z,25.70
2019-04-21T01:54:21.945Z,32.60
2019-04-21T01:57:23.131Z,34.00
2019-04-21T02:00:51.870Z,38.37
2019-04-21T02:04:01.127Z,33.40
2019-04-21T02:07:09.868Z,30.17
2019-04-21T02:10:22.657Z,30.20
2019-04-21T02:13:17.628Z,30.27
2019-04-21T02:16:30.764Z,30.93
2019-04-21T02:19:31.234Z,42.33
2019-04-21T02:23:03.713Z,33.00
2019-04-21T02:25:50.647Z,30.10
2019-04-21T02:29:00.130Z,38.43
2019-04-21T02:32:14.908Z,32.17
2019-04-21T02:35:30.661Z,33.57
2019-04-21T02:41:45.669Z,34.00
2019-04-21T02:50:53.383Z,34.40
2019-04-21T02:54:42.060Z,30.67
2019-04-21T02:57:23.193Z,28.53
2019-04-21T03:00:26.813Z,29.17
2019-04-21T03:03:36.284Z,33.57
2019-04-21T03:07:09.777Z,25.50
2019-04-21T03:10:10.775Z,30.17
2019-04-21T03:13:23.451Z,28.40
2019-04-21T03:16:23.401Z,37.80
2019-04-21T03:19:37.945Z,28.03
2019-04-21T03:26:00.882Z,31.93
2019-04-21T03:32:28.408Z,34.60
2019-04-21T03:38:16.138Z,35.67
2019-04-21T03:41:26.148Z,35.47
2019-04-21T03:44:32.692Z,38.07
2019-04-21T03:47:30.712Z,34.60
2019-04-21T04:00:11.002Z,38.03
2019-04-21T04:10:02.895Z,33.60
2019-04-21T04:13:07.691Z,33.43
2019-04-21T04:19:14.683Z,36.70
2019-04-21T04:22:31.387Z,34.40
2019-04-21T04:31:42.762Z,33.13
2019-04-21T04:35:05.929Z,35.40
2019-04-21T04:38:15.442Z,35.43
2019-04-21T04:44:51.534Z,30.57
2019-04-21T04:47:33.432Z,32.70
2019-04-21T05:00:15.700Z,34.53
2019-04-21T05:03:13.486Z,35.20
2019-04-21T05:09:30.838Z,34.57
2019-04-21T05:12:44.235Z,33.30
2019-04-21T05:15:52.643Z,38.77
2019-04-21T05:19:04.174Z,36.87
2019-04-21T05:21:57.234Z,30.37
2019-04-21T05:24:55.249Z,36.93
2019-04-21T05:28:00.058Z,35.03
2019-04-21T05:31:43.008Z,35.33
2019-04-21T05:34:42.634Z,31.60
2019-04-21T05:37:59.899Z,35.13
2019-04-21T05:41:00.398Z,32.97
2019-04-21T05:44:10.886Z,32.27
2019-04-21T05:47:46.272Z,37.20
2019-04-21T05:50:30.421Z,36.33
2019-04-21T05:53:36.215Z,37.43
2019-04-21T05:56:49.802Z,39.83
2019-04-21T05:59:53.338Z,33.10
2019-04-21T06:03:03.832Z,36.13
2019-04-21T06:06:13.587Z,40.13
2019-04-21T06:09:21.291Z,36.43
2019-04-21T06:12:28.404Z,36.83
2019-04-21T06:15:37.379Z,34.73
2019-04-21T06:21:44.907Z,32.30
2019-04-21T06:25:21.095Z,37.07
2019-04-21T06:27:58.985Z,36.17
2019-04-21T06:34:16.695Z,33.73
2019-04-21T06:37:52.194Z,37.77
2019-04-21T06:40:40.678Z,33.57
2019-04-21T06:43:54.885Z,38.10
2019-04-21T06:46:49.005Z,36.80
2019-04-21T06:50:15.359Z,34.30
2019-04-21T06:53:04.049Z,39.40
2019-04-21T06:56:14.927Z,36.87
2019-04-21T06:59:16.414Z,44.43
2019-04-21T07:02:50.496Z,40.50
2019-04-21T07:05:42.443Z,42.43
2019-04-21T07:08:52.940Z,37.40
2019-04-21T07:11:49.050Z,37.33
2019-04-21T07:14:59.568Z,39.90
2019-04-21T07:18:09.259Z,37.50
2019-04-21T07:21:15.839Z,42.07
2019-04-21T07:24:30.440Z,43.50
2019-04-21T07:27:31.566Z,39.53
2019-04-21T07:30:54.123Z,43.30
2019-04-21T07:33:54.251Z,39.90
2019-04-21T07:39:54.834Z,41.40
2019-04-21T07:43:01.402Z,43.40
2019-04-21T07:46:03.737Z,45.70
2019-04-21T07:49:50.141Z,38.10
2019-04-21T07:53:08.371Z,42.27
2019-04-21T07:55:50.979Z,39.13
2019-04-21T07:59:14.741Z,38.83
2019-04-21T08:02:28.124Z,40.17
2019-04-21T08:05:26.399Z,37.80
2019-04-21T08:08:34.245Z,39.77
2019-04-21T08:11:40.199Z,37.93
2019-04-21T08:14:55.636Z,33.20
2019-04-21T08:17:57.286Z,37.50
2019-04-21T08:21:08.471Z,41.20
2019-04-21T08:24:12.686Z,35.20
2019-04-21T08:27:19.847Z,33.20
2019-04-21T08:30:31.986Z,34.80
2019-04-21T08:33:41.424Z,32.93
2019-04-21T08:36:41.791Z,33.70
2019-04-21T08:39:59.331Z,33.27
2019-04-21T08:42:55.005Z,30.33
2019-04-21T08:46:01.543Z,32.73
2019-04-21T08:49:09.333Z,36.53
2019-04-21T08:52:34.713Z,36.00
2019-04-21T08:55:39.975Z,35.23
2019-04-21T08:59:07.479Z,32.10
2019-04-21T09:02:16.535Z,33.40
2019-04-21T09:05:17.527Z,34.73
2019-04-21T09:08:31.622Z,32.13
2019-04-21T09:11:36.251Z,31.97
2019-04-21T09:14:41.509Z,33.57
2019-04-21T09:17:43.778Z,27.67
2019-04-21T09:20:58.494Z,29.23
2019-04-21T09:24:04.549Z,32.40
2019-04-21T09:27:10.173Z,33.80
2019-04-21T09:30:02.659Z,27.80
2019-04-21T09:33:07.386Z,31.63
2019-04-21T09:36:17.931Z,32.93
2019-04-21T09:39:23.714Z,27.53
2019-04-21T09:42:35.243Z,32.20
2019-04-21T09:45:35.492Z,30.00
2019-04-21T09:48:49.792Z,31.47
2019-04-21T09:51:48.367Z,30.10
2019-04-21T09:55:03.487Z,29.17
2019-04-21T09:58:09.955Z,30.00
2019-04-21T10:01:19.792Z,28.00
2019-04-21T10:04:14.814Z,28.63
2019-04-21T10:07:29.311Z,25.53
2019-04-21T10:10:29.712Z,24.47
2019-04-21T10:13:36.227Z,24.07
2019-04-21T10:16:47.155Z,26.53
2019-04-21T10:19:52.920Z,24.67
2019-04-21T10:22:59.410Z,23.50
2019-04-21T10:26:06.337Z,23.57
2019-04-21T10:29:21.793Z,26.53
2019-04-21T10:32:23.183Z,27.10
2019-04-21T10:35:27.164Z,21.77
2019-04-21T10:38:38.959Z,25.33
2019-04-21T10:41:39.524Z,21.50
2019-04-21T10:44:45.244Z,24.17
2019-04-21T10:47:50.632Z,18.70
2019-04-21T10:50:56.915Z,22.10
2019-04-21T10:54:02.402Z,22.10
2019-04-21T10:57:12.572Z,21.47
2019-04-21T11:00:18.800Z,21.17
2019-04-21T11:03:44.748Z,22.60
2019-04-21T11:06:50.664Z,16.30
2019-04-21T11:09:56.265Z,14.80
2019-04-21T11:13:02.757Z,16.00
2019-04-21T11:16:08.902Z,15.00
2019-04-21T11:19:14.317Z,16.43
2019-04-21T11:22:20.826Z,13.93
2019-04-21T11:25:26.293Z,14.73
2019-04-21T11:28:31.655Z,16.20
2019-04-21T11:31:36.980Z,13.40
2019-04-21T11:34:43.163Z,19.60
2019-04-21T11:37:50.288Z,18.10
2019-04-21T11:40:55.990Z,18.93
2019-04-21T11:44:01.545Z,18.27
2019-04-21T11:47:10.341Z,15.43
2019-04-21T11:50:16.995Z,16.03
2019-04-21T11:53:23.142Z,13.57
2019-04-21T11:56:28.797Z,14.50
2019-04-21T11:59:35.524Z,13.10
2019-04-21T12:02:41.543Z,10.07
2019-04-21T12:05:47.712Z,10.60
2019-04-21T12:08:56.405Z,13.03
2019-04-21T12:12:01.241Z,10.70
2019-04-21T12:15:12.089Z,11.30
2019-04-21T12:18:16.026Z,13.80
2019-04-21T12:21:21.336Z,14.50
2019-04-21T12:24:30.910Z,14.43
2019-04-21T12:27:35.968Z,17.57
2019-04-21T12:30:41.979Z,12.73
2019-04-21T12:33:56.171Z,12.23
2019-04-21T12:37:01.726Z,19.03
2019-04-21T12:40:08.414Z,13.80
2019-04-21T12:43:16.694Z,14.80
2019-04-21T12:46:22.215Z,14.30
2019-04-21T12:49:27.635Z,13.50
2019-04-21T12:52:33.595Z,15.30
2019-04-21T12:55:42.760Z,12.77
2019-04-21T12:58:47.123Z,12.27
2019-04-21T13:01:52.875Z,12.77
2019-04-21T13:04:58.281Z,12.57
2019-04-21T13:08:03.846Z,10.40
2019-04-21T13:11:09.677Z,11.90
2019-04-21T13:14:17.725Z,11.63
2019-04-21T13:17:23.600Z,12.20
2019-04-21T13:20:30.002Z,12.30
2019-04-21T13:23:36.867Z,11.30
2019-04-21T13:26:47.239Z,13.90
2019-04-21T13:29:50.398Z,12.27
2019-04-21T13:32:55.780Z,12.93
2019-04-21T13:36:02.719Z,12.00
2019-04-21T13:39:55.222Z,11.27
2019-04-21T13:42:45.351Z,10.93
2019-04-21T13:45:45.905Z,10.97
2019-04-21T13:48:52.785Z,12.97
2019-04-21T13:51:58.244Z,10.47
2019-04-21T13:55:03.570Z,11.30
2019-04-21T13:58:10.304Z,18.53
2019-04-21T14:01:16.125Z,11.70
2019-04-21T14:04:23.177Z,11.80
2019-04-21T14:07:30.176Z,13.27
2019-04-21T14:10:35.708Z,16.13
2019-04-21T14:13:42.592Z,14.50
2019-04-21T14:16:49.920Z,15.10
2019-04-21T14:19:55.349Z,15.07
2019-04-21T14:23:13.652Z,20.80
2019-04-21T14:26:09.685Z,14.13
2019-04-21T14:29:15.512Z,16.67
2019-04-21T14:32:22.356Z,13.57
2019-04-21T14:35:28.973Z,14.77
2019-04-21T14:38:34.765Z,15.70
2019-04-21T14:41:40.450Z,14.80
2019-04-21T14:44:47.421Z,15.50
2019-04-21T14:48:03.201Z,12.57
2019-04-21T14:51:31.591Z,12.20
2019-04-21T14:54:59.034Z,14.07
2019-04-21T14:58:05.278Z,14.40
2019-04-21T15:01:13.657Z,13.13
2019-04-21T15:04:20.354Z,12.07
2019-04-21T15:07:27.537Z,13.40
2019-04-21T15:10:34.005Z,13.33
2019-04-21T15:13:40.177Z,12.70
2019-04-21T15:16:46.928Z,14.90
2019-04-21T15:19:59.703Z,10.60
2019-04-21T15:23:00.124Z,13.87
2019-04-21T15:26:06.067Z,13.60
2019-04-21T15:29:12.844Z,12.17
2019-04-21T15:32:18.784Z,13.57
2019-04-21T15:35:27.177Z,14.60
2019-04-21T15:38:33.886Z,14.20
2019-04-21T15:41:40.657Z,17.43
2019-04-21T15:44:46.146Z,15.20
2019-04-21T15:47:51.919Z,15.50
2019-04-21T15:50:58.720Z,14.43
2019-04-21T15:54:06.660Z,15.43
2019-04-21T15:57:17.593Z,15.30
2019-04-21T16:00:34.341Z,15.13
2019-04-21T16:03:40.675Z,17.50
2019-04-21T16:06:45.988Z,15.17
2019-04-21T16:09:52.350Z,18.43
2019-04-21T16:13:01.610Z,17.43
2019-04-21T16:16:08.412Z,16.07
2019-04-21T16:19:14.331Z,15.37
2019-04-21T16:22:20.928Z,20.40
2019-04-21T16:25:26.826Z,16.03
2019-04-21T16:28:33.334Z,16.90
2019-04-21T16:31:38.782Z,16.20
2019-04-21T16:34:51.015Z,17.93
2019-04-21T16:37:57.166Z,13.30
2019-04-21T16:41:06.461Z,17.40
2019-04-21T16:44:11.172Z,15.57
2019-04-21T16:47:17.264Z,19.93
2019-04-21T16:50:23.568Z,18.67
2019-04-21T16:53:34.125Z,19.43
2019-04-21T16:57:05.978Z,15.80
2019-04-21T17:00:29.105Z,14.70
2019-04-21T17:03:26.403Z,14.73
2019-04-21T17:06:33.229Z,15.57
2019-04-21T17:09:40.915Z,13.33
2019-04-21T17:12:47.983Z,16.53
2019-04-21T17:16:15.323Z,19.23
2019-04-21T17:19:12.736Z,14.10
2019-04-21T17:22:09.956Z,13.70
2019-04-21T17:25:16.185Z,13.67
2019-04-21T17:28:21.649Z,12.93
2019-04-21T17:31:26.955Z,14.10
2019-04-21T17:34:33.915Z,14.67
2019-04-21T17:37:40.460Z,14.23
2019-04-21T17:40:45.897Z,15.60
2019-04-21T17:43:52.509Z,16.80
2019-04-21T17:47:03.525Z,11.73
2019-04-21T17:50:37.643Z,15.57
2019-04-21T17:53:59.305Z,13.30
2019-04-21T17:57:26.612Z,16.70
2019-04-21T18:00:51.821Z,16.37
2019-04-21T18:03:46.234Z,19.43
2019-04-21T18:07:46.426Z,15.00
2019-04-21T18:10:37.477Z,12.83
2019-04-21T18:13:28.721Z,14.17
2019-04-21T18:16:40.921Z,13.53
2019-04-21T18:19:45.168Z,12.63
2019-04-21T18:23:00.919Z,16.30
2019-04-21T18:26:19.182Z,13.70
2019-04-21T18:29:15.850Z,18.03
2019-04-21T18:32:27.378Z,16.47
2019-04-21T18:35:38.985Z,12.90
2019-04-21T18:39:04.452Z,11.07
2019-04-21T18:42:46.455Z,13.60
2019-04-21T18:46:23.143Z,11.80
2019-04-21T18:49:13.122Z,13.10
2019-04-21T18:52:48.267Z,13.10
2019-04-21T18:55:46.719Z,14.00
2019-04-21T18:58:48.702Z,12.57
2019-04-21T19:02:02.408Z,11.40
2019-04-21T19:05:09.103Z,13.60
2019-04-21T19:08:27.878Z,15.37
2019-04-21T19:11:37.699Z,13.00
2019-04-21T19:14:43.073Z,14.20
2019-04-21T19:18:29.506Z,13.07
2019-04-21T19:20:54.045Z,14.00
2019-04-21T19:27:19.338Z,14.73
2019-04-21T19:30:33.226Z,11.43
2019-04-21T19:33:27.351Z,15.03
2019-04-21T19:36:17.342Z,16.07
2019-04-21T19:39:39.259Z,15.33
2019-04-21T19:42:39.762Z,13.20
2019-04-21T19:45:54.281Z,13.60
2019-04-21T19:49:10.746Z,14.57
2019-04-21T19:52:01.294Z,14.60
2019-04-21T19:55:00.479Z,15.70
2019-04-21T19:58:07.193Z,13.27
2019-04-21T20:01:14.012Z,14.93
2019-04-21T20:04:31.806Z,13.93
2019-04-21T20:07:47.025Z,14.77
2019-04-21T20:10:55.076Z,15.83
2019-04-21T20:14:35.891Z,15.20
2019-04-21T20:17:05.605Z,15.27
2019-04-21T20:20:15.159Z,14.83
2019-04-21T20:23:27.673Z,20.70
2019-04-21T20:26:37.923Z,13.10
2019-04-21T20:29:57.891Z,20.97
2019-04-21T20:33:14.147Z,17.80
2019-04-21T20:39:05.986Z,16.67
2019-04-21T20:42:22.585Z,14.63
2019-04-21T20:45:34.522Z,14.10
2019-04-21T20:48:30.568Z,13.83
2019-04-21T20:51:42.572Z,13.20
2019-04-21T20:54:48.269Z,19.13
2019-04-21T20:57:53.797Z,12.23
2019-04-21T21:01:25.398Z,10.83
2019-04-21T21:04:07.438Z,11.80
2019-04-21T21:07:36.380Z,12.10
2019-04-21T21:10:29.743Z,11.60
2019-04-21T21:13:36.684Z,10.40
2019-04-21T21:16:47.572Z,11.73
2019-04-21T21:19:54.526Z,12.83
2019-04-21T21:22:50.679Z,13.30
2019-04-21T21:26:10.683Z,9.20
2019-04-21T21:29:03.653Z,10.07
2019-04-21T21:32:20.693Z,13.67
2019-04-21T21:35:23.182Z,11.60
2019-04-21T21:38:36.329Z,14.27
2019-04-21T21:41:31.864Z,12.13
2019-04-21T21:44:35.232Z,12.27
2019-04-21T21:47:54.653Z,13.57
2019-04-21T21:50:59.966Z,11.77
2019-04-21T21:53:55.201Z,12.57
2019-04-21T21:57:00.918Z,14.30
2019-04-21T22:00:12.332Z,11.27
2019-04-21T22:03:26.634Z,12.90
2019-04-21T22:06:36.311Z,15.17
2019-04-21T22:09:32.340Z,12.07
2019-04-21T22:12:49.122Z,10.73
2019-04-21T22:15:48.241Z,12.67
2019-04-21T22:19:14.253Z,13.70
2019-04-21T22:22:14.054Z,12.60
2019-04-21T22:25:12.707Z,16.33
2019-04-21T22:28:15.654Z,15.80
2019-04-21T22:31:25.325Z,14.70
2019-04-21T22:34:35.965Z,16.07
2019-04-21T22:37:47.399Z,13.83
2019-04-21T22:40:55.947Z,14.23
2019-04-21T22:43:51.758Z,13.73
2019-04-21T22:47:06.153Z,13.27
2019-04-21T22:50:04.665Z,12.30
2019-04-21T22:53:11.951Z,16.00
2019-04-21T22:56:25.571Z,13.67
2019-04-21T22:59:27.842Z,17.37
2019-04-21T23:02:35.327Z,17.27
2019-04-21T23:05:41.698Z,13.73
2019-04-21T23:08:48.068Z,12.30
2019-04-21T23:11:56.566Z,12.70
2019-04-21T23:15:06.500Z,14.13
2019-04-21T23:18:27.318Z,15.43
2019-04-21T23:21:27.794Z,13.43
2019-04-21T23:24:45.545Z,15.77
2019-04-21T23:27:46.949Z,14.40
2019-04-21T23:31:00.848Z,13.37
2019-04-21T23:33:44.285Z,13.67
2019-04-21T23:36:57.406Z,30.00
2019-04-21T23:40:02.696Z,15.13
2019-04-21T23:43:09.525Z,15.80
2019-04-21T23:46:19.811Z,13.80
2019-04-21T23:49:29.653Z,11.20
2019-04-21T23:52:25.612Z,14.03
2019-04-21T23:55:31.500Z,13.17
2019-04-21T23:58:39.891Z,9.87
